createdAt,value
2022-07-29T00:02:00.428Z,101665.19
2022-07-29T00:07:03.310Z,101671.00
2022-07-29T00:12:08.114Z,101661.56
2022-07-29T00:17:12.712Z,101659.88
2022-07-29T00:22:22.165Z,101663.09
2022-07-29T00:27:26.293Z,101650.47
2022-07-29T00:32:29.073Z,101652.88
2022-07-29T00:37:31.910Z,101645.53
2022-07-29T00:42:45.132Z,101640.72
2022-07-29T00:47:48.033Z,101635.22
2022-07-29T00:52:51.453Z,101633.63
2022-07-29T00:57:56.009Z,101631.63
2022-07-29T01:02:59.095Z,101636.94
2022-07-29T01:08:03.506Z,101621.81
2022-07-29T01:13:08.552Z,101623.09
2022-07-29T01:18:18.397Z,101623.09
2022-07-29T01:23:53.882Z,101609.19
2022-07-29T01:29:07.736Z,101604.97
2022-07-29T01:34:18.436Z,101603.69
2022-07-29T01:39:28.343Z,101600.16
2022-07-29T01:44:39.666Z,101599.16
2022-07-29T01:49:48.719Z,101596.69
2022-07-29T01:54:56.874Z,101589.34
2022-07-29T02:00:02.961Z,101579.44
2022-07-29T02:05:19.449Z,101572.03
2022-07-29T02:10:26.251Z,101569.72
2022-07-29T02:15:34.253Z,101578.72
2022-07-29T02:20:40.091Z,101570.22
2022-07-29T02:25:44.831Z,101564.09
2022-07-29T02:30:51.886Z,101558.63
2022-07-29T02:35:56.565Z,101555.00
2022-07-29T02:41:02.063Z,101554.50
2022-07-29T02:46:27.991Z,101564.31
2022-07-29T02:51:44.532Z,101559.50
2022-07-29T02:56:50.044Z,101554.78
2022-07-29T03:01:56.559Z,101549.59
2022-07-29T03:07:09.085Z,101551.41
2022-07-29T03:12:13.663Z,101547.19
2022-07-29T03:17:18.654Z,101546.03
2022-07-29T03:22:21.634Z,101558.91
2022-07-29T03:27:24.508Z,101542.75
2022-07-29T03:32:28.772Z,101539.47
2022-07-29T03:37:34.328Z,101537.53
2022-07-29T03:42:41.198Z,101530.16
2022-07-29T03:47:52.880Z,101535.56
2022-07-29T03:52:59.454Z,101531.56
2022-07-29T03:58:04.003Z,101537.03
2022-07-29T04:03:10.653Z,101541.66
2022-07-29T04:08:14.542Z,101536.16
2022-07-29T04:13:17.327Z,101533.72
2022-07-29T04:18:21.750Z,101536.53
2022-07-29T04:23:24.582Z,101538.03
2022-07-29T04:28:27.397Z,101533.59
2022-07-29T04:33:31.615Z,101529.84
2022-07-29T04:38:34.414Z,101526.91
2022-07-29T04:43:37.708Z,101531.22
2022-07-29T04:48:42.080Z,101524.00
2022-07-29T04:53:44.900Z,101532.47
2022-07-29T04:58:47.782Z,101535.19
2022-07-29T05:03:53.945Z,101530.63
2022-07-29T05:08:58.680Z,101533.88
2022-07-29T05:14:01.532Z,101535.78
2022-07-29T05:19:07.729Z,101534.59
2022-07-29T05:24:14.121Z,101535.31
2022-07-29T05:29:44.566Z,101538.22
2022-07-29T05:34:50.174Z,101550.84
2022-07-29T05:39:56.803Z,101543.69
2022-07-29T05:45:00.392Z,101543.09
2022-07-29T05:50:05.342Z,101556.75
2022-07-29T05:55:08.746Z,101548.81
2022-07-29T06:00:12.635Z,101548.84
2022-07-29T06:05:17.224Z,101544.94
2022-07-29T06:10:20.242Z,101540.50
2022-07-29T06:15:26.866Z,101545.28
2022-07-29T06:20:32.144Z,101539.13
2022-07-29T06:25:36.319Z,101547.09
2022-07-29T06:30:39.225Z,101545.41
2022-07-29T06:35:47.858Z,101542.38
2022-07-29T06:41:04.659Z,101538.41
2022-07-29T06:46:10.128Z,101534.09
2022-07-29T06:51:14.532Z,101522.03
2022-07-29T06:56:17.328Z,101525.91
2022-07-29T07:01:20.763Z,101523.19
2022-07-29T07:06:26.054Z,101529.63
2022-07-29T07:11:29.340Z,101525.25
2022-07-29T07:16:33.124Z,101520.75
2022-07-29T07:21:37.549Z,101523.34
2022-07-29T07:26:40.961Z,101506.00
2022-07-29T07:31:43.843Z,101508.69
2022-07-29T07:36:48.040Z,101516.88
2022-07-29T07:41:50.829Z,101514.34
2022-07-29T07:46:54.665Z,101518.38
2022-07-29T07:51:59.094Z,101521.09
2022-07-29T07:57:02.094Z,101503.09
2022-07-29T08:02:05.125Z,101500.66
2022-07-29T08:07:09.998Z,101491.06
2022-07-29T08:12:12.763Z,101486.94
2022-07-29T08:17:15.552Z,101493.09
2022-07-29T08:22:19.889Z,101492.56
2022-07-29T08:27:42.460Z,101484.84
2022-07-29T08:32:54.514Z,101482.72
2022-07-29T08:37:59.583Z,101492.97
2022-07-29T08:43:07.839Z,101491.09
2022-07-29T08:48:10.843Z,101493.81
2022-07-29T08:53:16.630Z,101494.47
2022-07-29T08:58:23.184Z,101486.81
2022-07-29T09:03:29.473Z,101486.00
2022-07-29T09:08:35.440Z,101481.38
2022-07-29T09:13:38.326Z,101479.19
2022-07-29T09:18:43.862Z,101483.19
2022-07-29T09:29:16.971Z,101473.34
2022-07-29T09:34:25.006Z,101479.63
2022-07-29T09:39:32.398Z,101483.09
2022-07-29T09:44:49.097Z,101482.38
2022-07-29T09:49:55.349Z,101485.69
2022-07-29T09:55:07.629Z,101485.28
2022-07-29T10:00:15.469Z,101481.75
2022-07-29T10:05:21.532Z,101479.91
2022-07-29T10:10:27.322Z,101476.84
2022-07-29T10:15:34.528Z,101476.66
2022-07-29T10:20:37.980Z,101475.91
2022-07-29T10:25:46.066Z,101459.16
2022-07-29T10:30:53.694Z,101461.66
2022-07-29T10:36:14.291Z,101444.91
2022-07-29T10:41:58.542Z,101455.84
2022-07-29T10:47:03.479Z,101450.75
2022-07-29T10:52:08.402Z,101453.84
2022-07-29T10:57:25.659Z,101441.16
2022-07-29T11:02:52.923Z,101438.03
2022-07-29T11:08:28.389Z,101441.16
2022-07-29T11:13:49.125Z,101446.72
2022-07-29T11:19:29.874Z,101440.47
2022-07-29T11:24:34.888Z,101431.84
2022-07-29T11:29:41.425Z,101436.78
2022-07-29T11:34:48.806Z,101427.00
2022-07-29T11:40:20.156Z,101420.59
2022-07-29T11:45:42.025Z,101420.25
2022-07-29T11:50:49.775Z,101412.84
2022-07-29T11:55:58.177Z,101403.56
2022-07-29T12:01:04.294Z,101397.50
2022-07-29T12:06:17.478Z,101395.16
2022-07-29T12:11:23.435Z,101397.72
2022-07-29T12:16:36.950Z,101387.31
2022-07-29T12:21:53.615Z,101398.69
2022-07-29T12:27:01.114Z,101394.78
2022-07-29T12:32:15.075Z,101382.31
2022-07-29T12:37:38.993Z,101380.16
2022-07-29T12:43:10.186Z,101382.59
2022-07-29T12:48:13.548Z,101373.63
2022-07-29T12:53:17.904Z,101375.66
2022-07-29T12:58:31.753Z,101365.69
2022-07-29T13:03:57.332Z,101368.84
2022-07-29T13:09:04.015Z,101351.81
2022-07-29T13:14:07.415Z,101360.28
2022-07-29T13:19:12.291Z,101352.53
2022-07-29T13:24:19.773Z,101349.53
2022-07-29T13:29:22.909Z,101340.72
2022-07-29T13:34:26.322Z,101339.16
2022-07-29T13:39:31.117Z,101331.00
2022-07-29T13:44:33.972Z,101330.16
2022-07-29T13:49:37.459Z,101333.69
2022-07-29T13:54:42.606Z,101336.03
2022-07-29T13:59:48.366Z,101333.09
2022-07-29T14:04:53.587Z,101333.44
2022-07-29T14:09:57.872Z,101346.84
2022-07-29T14:15:00.686Z,101339.72
2022-07-29T14:20:03.606Z,101352.50
2022-07-29T14:25:15.153Z,101349.72
2022-07-29T14:30:18.426Z,101349.50
2022-07-29T14:35:21.293Z,101343.63
2022-07-29T14:40:26.602Z,101339.13
2022-07-29T14:45:30.145Z,101332.28
2022-07-29T14:50:33.040Z,101326.63
2022-07-29T14:55:37.430Z,101322.09
2022-07-29T15:00:40.376Z,101320.28
2022-07-29T15:05:43.453Z,101319.81
2022-07-29T15:10:47.945Z,101323.28
2022-07-29T15:15:50.850Z,101327.56
2022-07-29T15:20:53.684Z,101330.72
2022-07-29T15:25:58.495Z,101324.59
2022-07-29T15:31:01.323Z,101321.09
2022-07-29T15:36:05.540Z,101321.72
2022-07-29T15:41:09.855Z,101316.03
2022-07-29T15:46:32.698Z,101305.53
2022-07-29T15:51:35.782Z,101311.25
2022-07-29T15:56:40.281Z,101310.94
2022-07-29T16:01:43.184Z,101311.25
2022-07-29T16:06:47.383Z,101302.25
2022-07-29T16:11:53.551Z,101289.19
2022-07-29T16:16:57.011Z,101283.97
2022-07-29T16:22:00.258Z,101285.22
2022-07-29T16:27:04.757Z,101286.28
2022-07-29T16:32:08.049Z,101281.94
2022-07-29T16:37:10.899Z,101276.50
2022-07-29T16:42:30.934Z,101289.41
2022-07-29T16:47:37.918Z,101272.13
2022-07-29T16:52:40.980Z,101276.13
2022-07-29T16:57:45.559Z,101280.31
2022-07-29T17:02:48.595Z,101287.50
2022-07-29T17:07:51.496Z,101284.72
2022-07-29T17:12:55.698Z,101279.03
2022-07-29T17:17:58.873Z,101275.44
2022-07-29T17:23:01.876Z,101276.53
2022-07-29T17:28:06.210Z,101270.78
2022-07-29T17:33:09.011Z,101284.69
2022-07-29T17:38:12.085Z,101291.94
2022-07-29T17:43:16.300Z,101286.88
2022-07-29T17:48:19.405Z,101290.72
2022-07-29T17:53:22.232Z,101288.88
2022-07-29T17:58:26.580Z,101287.16
2022-07-29T18:03:29.465Z,101281.41
2022-07-29T18:08:32.335Z,101292.44
2022-07-29T18:13:36.770Z,101280.09
2022-07-29T18:18:39.706Z,101272.78
2022-07-29T18:23:42.705Z,101274.22
2022-07-29T18:28:46.977Z,101271.91
2022-07-29T18:33:50.441Z,101279.94
2022-07-29T18:38:53.252Z,101279.72
2022-07-29T18:43:57.397Z,101276.81
2022-07-29T18:49:00.518Z,101264.91
2022-07-29T18:54:03.486Z,101260.41
2022-07-29T18:59:08.079Z,101268.00
2022-07-29T19:04:10.904Z,101268.84
2022-07-29T19:09:13.762Z,101275.81
2022-07-29T19:14:17.966Z,101284.16
2022-07-29T19:19:20.838Z,101293.63
2022-07-29T19:24:23.840Z,101293.69
2022-07-29T19:29:28.035Z,101301.47
2022-07-29T19:34:31.505Z,101304.50
2022-07-29T19:39:35.350Z,101316.69
2022-07-29T19:44:39.859Z,101302.00
2022-07-29T19:49:42.692Z,101303.13
2022-07-29T19:54:45.754Z,101303.47
2022-07-29T19:59:50.211Z,101299.75
2022-07-29T20:04:53.554Z,101301.22
2022-07-29T20:09:56.403Z,101297.50
2022-07-29T20:15:01.234Z,101292.59
2022-07-29T20:20:04.650Z,101302.25
2022-07-29T20:25:09.736Z,101296.53
2022-07-29T20:30:14.354Z,101292.72
2022-07-29T20:35:17.213Z,101304.88
2022-07-29T20:40:23.131Z,101301.19
2022-07-29T20:45:27.368Z,101309.22
2022-07-29T20:50:30.322Z,101304.81
2022-07-29T20:55:33.153Z,101305.75
2022-07-29T21:00:37.353Z,101312.44
2022-07-29T21:05:43.226Z,101306.47
2022-07-29T21:10:47.042Z,101315.78
2022-07-29T21:15:51.873Z,101319.38
2022-07-29T21:20:55.069Z,101315.53
2022-07-29T21:25:58.038Z,101319.72
2022-07-29T21:31:06.127Z,101322.34
2022-07-29T21:41:33.158Z,101316.44
2022-07-29T21:46:37.469Z,101318.81
2022-07-29T21:51:40.559Z,101320.31
2022-07-29T21:56:43.413Z,101313.91
2022-07-29T22:01:55.325Z,101323.66
2022-07-29T22:06:59.829Z,101309.38
2022-07-29T22:12:02.839Z,101308.41
2022-07-29T22:17:07.076Z,101315.44
2022-07-29T22:22:10.053Z,101301.94
2022-07-29T22:27:13.596Z,101301.06
2022-07-29T22:32:18.010Z,101310.97
2022-07-29T22:37:21.300Z,101307.31
2022-07-29T22:42:24.119Z,101306.44
2022-07-29T22:47:46.208Z,101308.94
2022-07-29T22:52:51.339Z,101302.97
2022-07-29T22:57:54.194Z,101299.16
2022-07-29T23:02:58.431Z,101300.84
2022-07-29T23:08:01.552Z,101299.53
2022-07-29T23:13:04.409Z,101299.78
2022-07-29T23:18:08.696Z,101299.72
2022-07-29T23:23:11.449Z,101298.50
2022-07-29T23:28:14.364Z,101302.22
2022-07-29T23:33:19.006Z,101300.72
2022-07-29T23:38:21.873Z,101307.06
2022-07-29T23:43:24.694Z,101305.75
2022-07-29T23:48:29.093Z,101300.53
2022-07-29T23:53:31.991Z,101305.94
2022-07-29T23:58:34.804Z,101306.81
